sensor_id;sensor_type;location;lat;lon;timestamp;pressure;altitude;pressure_sealevel;temperature;humidity
21504;BME280;10913;51.992;9.228;2023-04-01T00:00:49;98228.38;;;10.29;100.00
21504;BME280;10913;51.992;9.228;2023-04-01T00:03:15;98232.78;;;10.28;100.00
21504;BME280;10913;51.992;9.228;2023-04-01T00:05:40;98233.72;;;10.27;100.00
21504;BME280;10913;51.992;9.228;2023-04-01T00:08:05;98224.13;;;10.25;100.00
21504;BME280;10913;51.992;9.228;2023-04-01T00:10:31;98232.16;;;10.22;100.00
21504;BME280;10913;51.992;9.228;2023-04-01T00:12:56;98230.44;;;10.21;100.00
21504;BME280;10913;51.992;9.228;2023-04-01T00:15:22;98230.44;;;10.21;100.00
21504;BME280;10913;51.992;9.228;2023-04-01T00:17:47;98232.31;;;10.19;100.00
21504;BME280;10913;51.992;9.228;2023-04-01T00:20:13;98235.81;;;10.18;100.00
21504;BME280;10913;51.992;9.228;2023-04-01T00:22:40;98235.94;;;10.15;100.00
21504;BME280;10913;51.992;9.228;2023-04-01T00:25:06;98228.03;;;10.15;100.00
21504;BME280;10913;51.992;9.228;2023-04-01T00:27:31;98224.47;;;10.16;100.00
21504;BME280;10913;51.992;9.228;2023-04-01T00:29:57;98227.03;;;10.19;100.00
21504;BME280;10913;51.992;9.228;2023-04-01T00:32:22;98229.53;;;10.22;100.00
21504;BME280;10913;51.992;9.228;2023-04-01T00:34:51;98230.16;;;10.28;100.00
21504;BME280;10913;51.992;9.228;2023-04-01T00:37:17;98229.19;;;10.31;100.00
21504;BME280;10913;51.992;9.228;2023-04-01T00:39:42;98229.06;;;10.34;100.00
21504;BME280;10913;51.992;9.228;2023-04-01T00:42:09;98217.72;;;10.32;100.00
21504;BME280;10913;51.992;9.228;2023-04-01T00:44:37;98219.44;;;10.33;100.00
21504;BME280;10913;51.992;9.228;2023-04-01T00:47:03;98228.25;;;10.32;100.00
21504;BME280;10913;51.992;9.228;2023-04-01T00:49:32;98221.16;;;10.34;100.00
21504;BME280;10913;51.992;9.228;2023-04-01T00:52:00;98215.06;;;10.32;100.00
21504;BME280;10913;51.992;9.228;2023-04-01T00:54:29;98212.44;;;10.32;100.00
21504;BME280;10913;51.992;9.228;2023-04-01T00:57:01;98217.72;;;10.32;100.00
21504;BME280;10913;51.992;9.228;2023-04-01T00:59:30;98214.25;;;10.30;100.00
21504;BME280;10913;51.992;9.228;2023-04-01T01:01:57;98218.63;;;10.31;100.00
21504;BME280;10913;51.992;9.228;2023-04-01T01:04:30;98221.38;;;10.28;100.00
21504;BME280;10913;51.992;9.228;2023-04-01T01:12:20;98213.34;;;10.08;100.00
21504;BME280;10913;51.992;9.228;2023-04-01T01:18:02;98212.53;;;10.06;100.00
21504;BME280;10913;51.992;9.228;2023-04-01T01:29:24;98206.50;;;10.02;100.00
21504;BME280;10913;51.992;9.228;2023-04-01T01:36:58;98197.63;;;10.05;100.00
21504;BME280;10913;51.992;9.228;2023-04-01T01:39:27;98206.34;;;10.07;100.00
21504;BME280;10913;51.992;9.228;2023-04-01T01:41:57;98203.75;;;10.05;100.00
21504;BME280;10913;51.992;9.228;2023-04-01T01:44:28;98200.25;;;10.05;100.00
21504;BME280;10913;51.992;9.228;2023-04-01T01:46:56;98214.25;;;10.07;100.00
21504;BME280;10913;51.992;9.228;2023-04-01T01:49:22;98207.19;;;10.07;100.00
21504;BME280;10913;51.992;9.228;2023-04-01T01:51:48;98204.63;;;10.06;100.00
21504;BME280;10913;51.992;9.228;2023-04-01T01:54:16;98210.81;;;10.05;100.00
21504;BME280;10913;51.992;9.228;2023-04-01T01:56:45;98214.38;;;10.03;100.00
21504;BME280;10913;51.992;9.228;2023-04-01T01:59:14;98203.88;;;10.02;100.00
21504;BME280;10913;51.992;9.228;2023-04-01T02:01:44;98206.56;;;10.00;100.00
21504;BME280;10913;51.992;9.228;2023-04-01T02:04:13;98215.41;;;9.99;100.00
21504;BME280;10913;51.992;9.228;2023-04-01T02:06:43;98212.84;;;9.98;100.00
21504;BME280;10913;51.992;9.228;2023-04-01T02:09:11;98214.72;;;9.94;100.00
21504;BME280;10913;51.992;9.228;2023-04-01T02:11:41;98214.84;;;9.91;100.00
21504;BME280;10913;51.992;9.228;2023-04-01T02:16:55;98212.97;;;9.95;100.00
21504;BME280;10913;51.992;9.228;2023-04-01T02:19:26;98212.31;;;9.88;100.00
21504;BME280;10913;51.992;9.228;2023-04-01T02:21:56;98205.44;;;9.84;100.00
21504;BME280;10913;51.992;9.228;2023-04-01T02:24:23;98208.19;;;9.81;100.00
21504;BME280;10913;51.992;9.228;2023-04-01T02:26:51;98209.84;;;9.84;100.00
21504;BME280;10913;51.992;9.228;2023-04-01T02:29:20;98205.38;;;9.86;100.00
21504;BME280;10913;51.992;9.228;2023-04-01T02:31:46;98209.72;;;9.87;100.00
21504;BME280;10913;51.992;9.228;2023-04-01T02:34:13;98202.75;;;9.86;100.00
21504;BME280;10913;51.992;9.228;2023-04-01T02:36:39;98212.31;;;9.88;100.00
21504;BME280;10913;51.992;9.228;2023-04-01T02:39:04;98207.00;;;9.90;100.00
21504;BME280;10913;51.992;9.228;2023-04-01T02:41:30;98202.47;;;9.93;100.00
21504;BME280;10913;51.992;9.228;2023-04-01T02:43:56;98207.69;;;9.95;100.00
21504;BME280;10913;51.992;9.228;2023-04-01T02:46:24;98216.41;;;9.97;100.00
21504;BME280;10913;51.992;9.228;2023-04-01T02:48:49;98217.38;;;9.94;100.00
21504;BME280;10913;51.992;9.228;2023-04-01T02:51:15;98217.38;;;9.94;100.00
21504;BME280;10913;51.992;9.228;2023-04-01T02:53:40;98211.28;;;9.92;100.00
21504;BME280;10913;51.992;9.228;2023-04-01T02:56:05;98213.94;;;9.92;100.00
21504;BME280;10913;51.992;9.228;2023-04-01T02:58:31;98225.50;;;9.88;100.00
21504;BME280;10913;51.992;9.228;2023-04-01T03:00:56;98214.03;;;9.89;100.00
21504;BME280;10913;51.992;9.228;2023-04-01T03:03:22;98214.91;;;9.90;100.00
21504;BME280;10913;51.992;9.228;2023-04-01T03:05:47;98219.25;;;9.91;100.00
21504;BME280;10913;51.992;9.228;2023-04-01T03:08:12;98216.72;;;9.88;100.00
21504;BME280;10913;51.992;9.228;2023-04-01T03:10:38;98222.75;;;9.91;100.00
21504;BME280;10913;51.992;9.228;2023-04-01T03:13:03;98223.72;;;9.89;100.00
21504;BME280;10913;51.992;9.228;2023-04-01T03:15:28;98218.44;;;9.89;100.00
21504;BME280;10913;51.992;9.228;2023-04-01T03:17:54;98216.69;;;9.89;100.00
21504;BME280;10913;51.992;9.228;2023-04-01T03:20:19;98213.34;;;9.84;100.00
21504;BME280;10913;51.992;9.228;2023-04-01T03:22:45;98222.00;;;9.88;100.00
21504;BME280;10913;51.992;9.228;2023-04-01T03:25:11;98213.22;;;9.87;100.00
21504;BME280;10913;51.992;9.228;2023-04-01T03:27:36;98219.31;;;9.89;100.00
21504;BME280;10913;51.992;9.228;2023-04-01T03:30:03;98208.00;;;9.86;100.00
21504;BME280;10913;51.992;9.228;2023-04-01T03:32:30;98213.22;;;9.87;100.00
21504;BME280;10913;51.992;9.228;2023-04-01T03:34:55;98215.97;;;9.84;100.00
21504;BME280;10913;51.992;9.228;2023-04-01T03:37:21;98214.16;;;9.86;100.00
21504;BME280;10913;51.992;9.228;2023-04-01T03:39:46;98211.56;;;9.85;100.00
21504;BME280;10913;51.992;9.228;2023-04-01T03:42:12;98221.25;;;9.84;100.00
21504;BME280;10913;51.992;9.228;2023-04-01T03:44:37;98221.16;;;9.87;100.00
21504;BME280;10913;51.992;9.228;2023-04-01T03:47:03;98216.72;;;9.88;100.00
21504;BME280;10913;51.992;9.228;2023-04-01T03:49:28;98223.63;;;9.92;100.00
21504;BME280;10913;51.992;9.228;2023-04-01T03:51:54;98222.75;;;9.91;100.00
21504;BME280;10913;51.992;9.228;2023-04-01T03:54:20;98220.16;;;9.90;100.00
21504;BME280;10913;51.992;9.228;2023-04-01T03:56:46;98222.81;;;9.90;100.00
21504;BME280;10913;51.992;9.228;2023-04-01T03:59:12;98219.41;;;9.86;100.00
21504;BME280;10913;51.992;9.228;2023-04-01T04:01:37;98229.06;;;9.87;100.00
21504;BME280;10913;51.992;9.228;2023-04-01T04:04:03;98224.81;;;9.83;100.00
21504;BME280;10913;51.992;9.228;2023-04-01T04:06:29;98230.06;;;9.83;100.00
21504;BME280;10913;51.992;9.228;2023-04-01T04:08:54;98228.34;;;9.82;100.00
21504;BME280;10913;51.992;9.228;2023-04-01T04:11:21;98221.38;;;9.81;100.00
21504;BME280;10913;51.992;9.228;2023-04-01T04:13:47;98230.19;;;9.80;100.00
21504;BME280;10913;51.992;9.228;2023-04-01T04:16:16;98231.91;;;9.81;100.00
21504;BME280;10913;51.992;9.228;2023-04-01T04:18:42;98225.06;;;9.77;100.00
21504;BME280;10913;51.992;9.228;2023-04-01T04:21:12;98224.13;;;9.78;100.00
21504;BME280;10913;51.992;9.228;2023-04-01T04:23:37;98224.19;;;9.77;100.00
21504;BME280;10913;51.992;9.228;2023-04-01T04:26:06;98230.38;;;9.76;100.00
21504;BME280;10913;51.992;9.228;2023-04-01T04:28:32;98225.06;;;9.77;100.00
21504;BME280;10913;51.992;9.228;2023-04-01T04:30:58;98232.16;;;9.75;100.00
21504;BME280;10913;51.992;9.228;2023-04-01T04:33:25;98232.06;;;9.78;100.00
21504;BME280;10913;51.992;9.228;2023-04-01T04:35:51;98232.06;;;9.78;100.00
21504;BME280;10913;51.992;9.228;2023-04-01T04:38:19;98235.66;;;9.76;100.00
21504;BME280;10913;51.992;9.228;2023-04-01T04:40:44;98233.03;;;9.76;100.00
21504;BME280;10913;51.992;9.228;2023-04-01T04:43:12;98237.47;;;9.74;100.00
21504;BME280;10913;51.992;9.228;2023-04-01T04:45:38;98232.25;;;9.72;100.00
21504;BME280;10913;51.992;9.228;2023-04-01T04:48:03;98233.22;;;9.70;100.00
21504;BME280;10913;51.992;9.228;2023-04-01T04:50:29;98242.16;;;9.65;100.00
21504;BME280;10913;51.992;9.228;2023-04-01T04:52:54;98237.84;;;9.63;100.00
21504;BME280;10913;51.992;9.228;2023-04-01T04:55:20;98242.16;;;9.65;100.00
21504;BME280;10913;51.992;9.228;2023-04-01T04:57:46;98244.75;;;9.67;100.00
21504;BME280;10913;51.992;9.228;2023-04-01T05:00:11;98248.41;;;9.63;100.00
21504;BME280;10913;51.992;9.228;2023-04-01T05:02:37;98251.09;;;9.61;100.00
21504;BME280;10913;51.992;9.228;2023-04-01T05:05:02;98248.41;;;9.63;100.00
21504;BME280;10913;51.992;9.228;2023-04-01T05:07:28;98250.00;;;9.67;100.00
21504;BME280;10913;51.992;9.228;2023-04-01T05:09:53;98249.16;;;9.66;100.00
21504;BME280;10913;51.992;9.228;2023-04-01T05:12:18;98251.75;;;9.68;100.00
21504;BME280;10913;51.992;9.228;2023-04-01T05:14:44;98258.84;;;9.66;100.00
21504;BME280;10913;51.992;9.228;2023-04-01T05:17:11;98256.97;;;9.70;100.00
21504;BME280;10913;51.992;9.228;2023-04-01T05:19:37;98258.72;;;9.69;100.00
21504;BME280;10913;51.992;9.228;2023-04-01T05:22:03;98259.53;;;9.71;100.00
21504;BME280;10913;51.992;9.228;2023-04-01T05:24:29;98257.81;;;9.70;100.00
21504;BME280;10913;51.992;9.228;2023-04-01T05:26:55;98257.75;;;9.72;100.00
21504;BME280;10913;51.992;9.228;2023-04-01T05:29:22;98253.34;;;9.72;100.00
21504;BME280;10913;51.992;9.228;2023-04-01T05:31:48;98256.69;;;9.77;100.00
21504;BME280;10913;51.992;9.228;2023-04-01T05:34:13;98258.28;;;9.81;100.00
21504;BME280;10913;51.992;9.228;2023-04-01T05:36:38;98257.56;;;9.78;100.00
21504;BME280;10913;51.992;9.228;2023-04-01T05:39:04;98256.69;;;9.77;100.00
21504;BME280;10913;51.992;9.228;2023-04-01T05:41:30;98254.09;;;9.76;100.00
21504;BME280;10913;51.992;9.228;2023-04-01T05:43:55;98256.69;;;9.77;100.00
21504;BME280;10913;51.992;9.228;2023-04-01T05:46:21;98254.09;;;9.76;100.00
21504;BME280;10913;51.992;9.228;2023-04-01T05:48:46;98265.53;;;9.76;100.00
21504;BME280;10913;51.992;9.228;2023-04-01T05:51:13;98258.56;;;9.74;100.00
21504;BME280;10913;51.992;9.228;2023-04-01T05:53:39;98263.78;;;9.75;100.00
21504;BME280;10913;51.992;9.228;2023-04-01T05:56:05;98264.72;;;9.74;100.00
21504;BME280;10913;51.992;9.228;2023-04-01T05:58:31;98260.47;;;9.70;100.00
21504;BME280;10913;51.992;9.228;2023-04-01T06:01:04;98265.63;;;9.73;100.00
21504;BME280;10913;51.992;9.228;2023-04-01T06:03:30;98263.78;;;9.75;100.00
21504;BME280;10913;51.992;9.228;2023-04-01T06:05:55;98265.47;;;9.78;100.00
21504;BME280;10913;51.992;9.228;2023-04-01T06:08:21;98272.56;;;9.76;100.00
21504;BME280;10913;51.992;9.228;2023-04-01T06:16:30;98270.75;;;9.78;100.00
21504;BME280;10913;51.992;9.228;2023-04-01T06:18:59;98273.28;;;9.79;100.00
21504;BME280;10913;51.992;9.228;2023-04-01T06:29:41;98280.19;;;9.83;100.00
21504;BME280;10913;51.992;9.228;2023-04-01T06:32:16;98292.34;;;9.87;100.00
21504;BME280;10913;51.992;9.228;2023-04-01T06:41:03;98296.03;;;10.07;100.00
21504;BME280;10913;51.992;9.228;2023-04-01T06:54:09;98302.38;;;10.26;100.00
21504;BME280;10913;51.992;9.228;2023-04-01T06:56:38;98297.09;;;10.26;100.00
21504;BME280;10913;51.992;9.228;2023-04-01T06:59:22;98295.47;;;10.22;100.00
21504;BME280;10913;51.992;9.228;2023-04-01T07:01:55;98299.84;;;10.23;100.00
21504;BME280;10913;51.992;9.228;2023-04-01T07:04:28;98301.69;;;10.21;100.00
21504;BME280;10913;51.992;9.228;2023-04-01T07:07:00;98305.06;;;10.24;100.00
21504;BME280;10913;51.992;9.228;2023-04-01T07:09:37;98301.69;;;10.21;100.00
21504;BME280;10913;51.992;9.228;2023-04-01T07:12:21;98305.19;;;10.21;100.00
21504;BME280;10913;51.992;9.228;2023-04-01T07:14:50;98306.91;;;10.22;100.00
21504;BME280;10913;51.992;9.228;2023-04-01T07:17:28;98300.91;;;10.19;100.00
21504;BME280;10913;51.992;9.228;2023-04-01T07:22:40;98313.25;;;10.17;100.00
21504;BME280;10913;51.992;9.228;2023-04-01T07:25:14;98319.56;;;10.13;100.00
21504;BME280;10913;51.992;9.228;2023-04-01T07:27:41;98316.75;;;10.17;100.00
21504;BME280;10913;51.992;9.228;2023-04-01T07:30:20;98324.72;;;10.16;100.00
21504;BME280;10913;51.992;9.228;2023-04-01T07:35:44;98322.16;;;10.14;100.00
21504;BME280;10913;51.992;9.228;2023-04-01T07:54:13;98345.28;;;10.31;100.00
21504;BME280;10913;51.992;9.228;2023-04-01T07:56:51;98344.38;;;10.32;100.00
21504;BME280;10913;51.992;9.228;2023-04-01T07:59:41;98344.38;;;10.32;100.00
21504;BME280;10913;51.992;9.228;2023-04-01T08:07:55;98351.88;;;10.43;100.00
21504;BME280;10913;51.992;9.228;2023-04-01T08:18:47;98363.72;;;10.56;100.00
21504;BME280;10913;51.992;9.228;2023-04-01T08:21:25;98360.13;;;10.58;100.00
21504;BME280;10913;51.992;9.228;2023-04-01T08:23:54;98365.19;;;10.63;100.00
21504;BME280;10913;51.992;9.228;2023-04-01T08:26:37;98370.25;;;10.69;100.00
21504;BME280;10913;51.992;9.228;2023-04-01T08:29:17;98368.41;;;10.71;100.00
21504;BME280;10913;51.992;9.228;2023-04-01T08:32:00;98379.72;;;10.75;100.00
21504;BME280;10913;51.992;9.228;2023-04-01T08:34:40;98376.06;;;10.79;100.00
21504;BME280;10913;51.992;9.228;2023-04-01T08:37:11;98374.94;;;10.84;100.00
21504;BME280;10913;51.992;9.228;2023-04-01T08:39:49;98375.91;;;10.82;100.00
21504;BME280;10913;51.992;9.228;2023-04-01T08:45:23;98377.63;;;10.83;100.00
21504;BME280;10913;51.992;9.228;2023-04-01T08:56:17;98385.09;;;10.95;100.00
21504;BME280;10913;51.992;9.228;2023-04-01T09:15:12;98396.47;;;10.97;100.00
21504;BME280;10913;51.992;9.228;2023-04-01T09:18:09;98396.03;;;11.08;100.00
21504;BME280;10913;51.992;9.228;2023-04-01T09:34:53;98414.44;;;11.32;100.00
21504;BME280;10913;51.992;9.228;2023-04-01T09:40:25;98421.06;;;11.43;100.00
21504;BME280;10913;51.992;9.228;2023-04-01T09:45:23;98418.69;;;11.36;100.00
21504;BME280;10913;51.992;9.228;2023-04-01T09:53:19;98428.47;;;11.34;100.00
21504;BME280;10913;51.992;9.228;2023-04-01T09:56:10;98429.31;;;11.35;100.00
21504;BME280;10913;51.992;9.228;2023-04-01T10:16:09;98437.25;;;11.79;100.00
21504;BME280;10913;51.992;9.228;2023-04-01T10:24:19;98441.16;;;11.90;100.00
21504;BME280;10913;51.992;9.228;2023-04-01T10:29:46;98441.84;;;11.95;100.00
21504;BME280;10913;51.992;9.228;2023-04-01T10:32:34;98444.16;;;12.03;100.00
21504;BME280;10913;51.992;9.228;2023-04-01T10:43:56;98447.41;;;12.10;100.00
21504;BME280;10913;51.992;9.228;2023-04-01T10:47:46;98450.19;;;12.06;100.00
21504;BME280;10913;51.992;9.228;2023-04-01T10:53:00;98442.25;;;12.06;100.00
21504;BME280;10913;51.992;9.228;2023-04-01T11:24:36;98473.41;;;12.20;100.00
21504;BME280;10913;51.992;9.228;2023-04-01T11:27:02;98477.78;;;12.21;100.00
21504;BME280;10913;51.992;9.228;2023-04-01T11:43:05;98476.84;;;12.63;100.00
21504;BME280;10913;51.992;9.228;2023-04-01T11:45:48;98485.63;;;12.84;100.00
21504;BME280;10913;51.992;9.228;2023-04-01T11:48:28;98487.25;;;13.06;100.00
21504;BME280;10913;51.992;9.228;2023-04-01T12:05:28;98495.84;;;13.68;100.00
21504;BME280;10913;51.992;9.228;2023-04-01T12:08:13;98497.50;;;13.70;100.00
21504;BME280;10913;51.992;9.228;2023-04-01T12:18:49;98505.69;;;13.66;100.00
21504;BME280;10913;51.992;9.228;2023-04-01T12:22:09;98508.16;;;13.52;97.20
21504;BME280;10913;51.992;9.228;2023-04-01T12:33:19;98508.63;;;13.22;100.00
21504;BME280;10913;51.992;9.228;2023-04-01T12:36:04;98512.06;;;13.24;100.00
21504;BME280;10913;51.992;9.228;2023-04-01T12:38:58;98519.88;;;13.27;100.00
21504;BME280;10913;51.992;9.228;2023-04-01T12:41:40;98522.97;;;13.18;100.00
21504;BME280;10913;51.992;9.228;2023-04-01T12:55:37;98537.50;;;12.89;100.00
21504;BME280;10913;51.992;9.228;2023-04-01T13:11:20;98564.91;;;12.27;100.00
21504;BME280;10913;51.992;9.228;2023-04-01T13:14:13;98564.91;;;12.27;100.00
21504;BME280;10913;51.992;9.228;2023-04-01T13:16:48;98568.53;;;12.25;100.00
21504;BME280;10913;51.992;9.228;2023-04-01T13:19:22;98574.75;;;12.24;100.00
21504;BME280;10913;51.992;9.228;2023-04-01T13:22:01;98581.75;;;12.25;100.00
21504;BME280;10913;51.992;9.228;2023-04-01T13:24:49;98585.22;;;12.27;100.00
21504;BME280;10913;51.992;9.228;2023-04-01T13:32:50;98589.00;;;12.41;100.00
21504;BME280;10913;51.992;9.228;2023-04-01T13:35:34;98587.03;;;12.47;100.00
21504;BME280;10913;51.992;9.228;2023-04-01T14:02:51;98604.75;;;13.07;100.00
21504;BME280;10913;51.992;9.228;2023-04-01T14:13:56;98621.94;;;12.98;100.00
21504;BME280;10913;51.992;9.228;2023-04-01T14:38:38;98649.81;;;12.87;100.00
21504;BME280;10913;51.992;9.228;2023-04-01T14:50:04;98655.00;;;12.68;100.00
21504;BME280;10913;51.992;9.228;2023-04-01T14:52:36;98665.59;;;12.68;100.00
21504;BME280;10913;51.992;9.228;2023-04-01T14:58:04;98669.19;;;12.67;100.00
21504;BME280;10913;51.992;9.228;2023-04-01T15:03:26;98675.22;;;12.70;100.00
21504;BME280;10913;51.992;9.228;2023-04-01T15:06:25;98671.66;;;12.71;100.00
21504;BME280;10913;51.992;9.228;2023-04-01T15:16:50;98696.72;;;12.63;100.00
21504;BME280;10913;51.992;9.228;2023-04-01T15:24:52;98717.25;;;12.58;100.00
21504;BME280;10913;51.992;9.228;2023-04-01T15:27:42;98714.78;;;12.53;100.00
21504;BME280;10913;51.992;9.228;2023-04-01T15:30:33;98719.41;;;12.48;100.00
21504;BME280;10913;51.992;9.228;2023-04-01T15:42:15;98734.81;;;12.15;100.00
21504;BME280;10913;51.992;9.228;2023-04-01T15:47:42;98752.66;;;12.10;100.00
21504;BME280;10913;51.992;9.228;2023-04-01T15:53:03;98759.69;;;12.11;100.00
21504;BME280;10913;51.992;9.228;2023-04-01T15:56:36;98762.22;;;12.14;100.00
21504;BME280;10913;51.992;9.228;2023-04-01T15:59:11;98759.50;;;12.16;100.00
21504;BME280;10913;51.992;9.228;2023-04-01T16:15:26;98792.31;;;12.12;100.00
21504;BME280;10913;51.992;9.228;2023-04-01T16:18:32;98796.34;;;11.98;100.00
21504;BME280;10913;51.992;9.228;2023-04-01T16:21:48;98801.75;;;11.95;100.00
21504;BME280;10913;51.992;9.228;2023-04-01T16:24:09;98806.28;;;11.92;100.00
21504;BME280;10913;51.992;9.228;2023-04-01T16:26:39;98807.03;;;11.95;100.00
21504;BME280;10913;51.992;9.228;2023-04-01T16:29:38;98805.19;;;11.97;100.00
21504;BME280;10913;51.992;9.228;2023-04-01T16:32:18;98813.91;;;11.99;100.00
21504;BME280;10913;51.992;9.228;2023-04-01T16:34:53;98819.22;;;11.99;100.00
21504;BME280;10913;51.992;9.228;2023-04-01T16:37:27;98818.28;;;12.00;100.00
21504;BME280;10913;51.992;9.228;2023-04-01T16:40:14;98824.50;;;11.99;100.00
21504;BME280;10913;51.992;9.228;2023-04-01T16:42:53;98823.72;;;11.97;100.00
21504;BME280;10913;51.992;9.228;2023-04-01T16:45:31;98837.00;;;11.96;100.00
21504;BME280;10913;51.992;9.228;2023-04-01T16:48:13;98838.09;;;11.90;100.00
21504;BME280;10913;51.992;9.228;2023-04-01T16:50:58;98852.50;;;11.82;100.00
21504;BME280;10913;51.992;9.228;2023-04-01T16:53:35;98852.84;;;11.71;100.00
21504;BME280;10913;51.992;9.228;2023-04-01T16:58:42;98863.13;;;11.54;100.00
21504;BME280;10913;51.992;9.228;2023-04-01T17:01:16;98874.88;;;11.45;100.00
21504;BME280;10913;51.992;9.228;2023-04-01T17:03:46;98878.47;;;11.43;100.00
21504;BME280;10913;51.992;9.228;2023-04-01T17:09:20;98890.38;;;11.29;100.00
21504;BME280;10913;51.992;9.228;2023-04-01T17:12:08;98898.41;;;11.26;100.00
21504;BME280;10913;51.992;9.228;2023-04-01T17:14:50;98910.16;;;11.18;100.00
21504;BME280;10913;51.992;9.228;2023-04-01T17:17:42;98909.47;;;11.11;100.00
21504;BME280;10913;51.992;9.228;2023-04-01T17:20:12;98918.56;;;11.01;100.00
21504;BME280;10913;51.992;9.228;2023-04-01T17:28:47;98944.94;;;10.75;100.00
21504;BME280;10913;51.992;9.228;2023-04-01T17:31:54;98956.38;;;10.75;100.00
21504;BME280;10913;51.992;9.228;2023-04-01T17:34:53;98965.25;;;10.73;100.00
21504;BME280;10913;51.992;9.228;2023-04-01T17:43:01;98976.31;;;10.54;100.00
21504;BME280;10913;51.992;9.228;2023-04-01T17:53:59;99004.94;;;10.39;100.00
21504;BME280;10913;51.992;9.228;2023-04-01T18:20:37;99079.50;;;9.74;100.00
21504;BME280;10913;51.992;9.228;2023-04-01T18:25:41;99093.59;;;9.73;100.00
21504;BME280;10913;51.992;9.228;2023-04-01T18:28:32;99097.13;;;9.72;100.00
21504;BME280;10913;51.992;9.228;2023-04-01T18:34:14;99107.66;;;9.72;100.00
21504;BME280;10913;51.992;9.228;2023-04-01T18:41:35;99129.16;;;9.54;100.00
21504;BME280;10913;51.992;9.228;2023-04-01T18:44:34;99137.97;;;9.53;100.00
21504;BME280;10913;51.992;9.228;2023-04-01T18:52:43;99153.84;;;9.50;100.00
21504;BME280;10913;51.992;9.228;2023-04-01T18:55:39;99154.72;;;9.50;100.00
21504;BME280;10913;51.992;9.228;2023-04-01T18:58:33;99171.66;;;9.39;100.00
21504;BME280;10913;51.992;9.228;2023-04-01T19:03:43;99176.13;;;9.35;100.00
21504;BME280;10913;51.992;9.228;2023-04-01T19:06:21;99188.56;;;9.27;100.00
21504;BME280;10913;51.992;9.228;2023-04-01T19:08:48;99191.22;;;9.27;100.00
21504;BME280;10913;51.992;9.228;2023-04-01T19:11:35;99193.91;;;9.24;100.00
21504;BME280;10913;51.992;9.228;2023-04-01T19:14:22;99203.53;;;9.25;100.00
21504;BME280;10913;51.992;9.228;2023-04-01T19:19:45;99207.16;;;9.19;100.00
21504;BME280;10913;51.992;9.228;2023-04-01T19:23:01;99217.88;;;9.10;100.00
21504;BME280;10913;51.992;9.228;2023-04-01T19:25:40;99223.28;;;9.03;100.00
21504;BME280;10913;51.992;9.228;2023-04-01T19:34:26;99242.53;;;9.06;100.00
21504;BME280;10913;51.992;9.228;2023-04-01T19:36:58;99246.97;;;9.03;100.00
21504;BME280;10913;51.992;9.228;2023-04-01T19:42:09;99254.91;;;9.01;100.00
21504;BME280;10913;51.992;9.228;2023-04-01T19:45:05;99254.09;;;8.99;100.00
21504;BME280;10913;51.992;9.228;2023-04-01T19:50:37;99269.16;;;8.91;100.00
21504;BME280;10913;51.992;9.228;2023-04-01T19:58:31;99289.56;;;8.78;100.00
21504;BME280;10913;51.992;9.228;2023-04-01T20:00:59;99308.00;;;8.77;100.00
21504;BME280;10913;51.992;9.228;2023-04-01T20:03:34;99310.72;;;8.71;100.00
21504;BME280;10913;51.992;9.228;2023-04-01T20:08:49;99317.84;;;8.62;100.00
21504;BME280;10913;51.992;9.228;2023-04-01T20:19:28;99341.72;;;8.52;100.00
21504;BME280;10913;51.992;9.228;2023-04-01T20:21:57;99347.88;;;8.49;100.00
21504;BME280;10913;51.992;9.228;2023-04-01T20:24:36;99357.56;;;8.47;100.00
21504;BME280;10913;51.992;9.228;2023-04-01T20:32:18;99376.81;;;8.52;100.00
21504;BME280;10913;51.992;9.228;2023-04-01T20:35:07;99383.84;;;8.50;100.00
21504;BME280;10913;51.992;9.228;2023-04-01T20:43:07;99395.25;;;8.51;100.00
21504;BME280;10913;51.992;9.228;2023-04-01T20:45:38;99399.66;;;8.49;100.00
21504;BME280;10913;51.992;9.228;2023-04-01T20:59:09;99436.06;;;8.09;100.00
21504;BME280;10913;51.992;9.228;2023-04-01T21:04:42;99447.59;;;7.95;100.00
21504;BME280;10913;51.992;9.228;2023-04-01T21:07:37;99450.22;;;7.95;100.00
21504;BME280;10913;51.992;9.228;2023-04-01T21:15:35;99475.66;;;7.95;100.00
21504;BME280;10913;51.992;9.228;2023-04-01T21:18:38;99473.91;;;7.95;100.00
21504;BME280;10913;51.992;9.228;2023-04-01T21:23:54;99483.53;;;7.97;100.00
21504;BME280;10913;51.992;9.228;2023-04-01T21:26:35;99498.47;;;7.91;100.00
21504;BME280;10913;51.992;9.228;2023-04-01T21:29:18;99487.16;;;7.80;100.00
21504;BME280;10913;51.992;9.228;2023-04-01T21:34:42;99509.19;;;7.67;100.00
21504;BME280;10913;51.992;9.228;2023-04-01T21:42:54;99528.56;;;7.57;100.00
21504;BME280;10913;51.992;9.228;2023-04-01T22:04:42;99561.88;;;7.53;100.00
21504;BME280;10913;51.992;9.228;2023-04-01T22:09:39;99570.66;;;7.49;100.00
21504;BME280;10913;51.992;9.228;2023-04-01T22:12:21;99575.09;;;7.37;100.00
21504;BME280;10913;51.992;9.228;2023-04-01T22:15:15;99579.50;;;7.35;100.00
21504;BME280;10913;51.992;9.228;2023-04-01T22:18:29;99592.63;;;7.38;100.00
21504;BME280;10913;51.992;9.228;2023-04-01T22:26:17;99604.91;;;7.28;100.00
21504;BME280;10913;51.992;9.228;2023-04-01T22:36:58;99636.53;;;7.04;100.00
21504;BME280;10913;51.992;9.228;2023-04-01T22:50:00;99649.69;;;6.96;100.00
21504;BME280;10913;51.992;9.228;2023-04-01T22:55:00;99667.19;;;6.97;100.00
21504;BME280;10913;51.992;9.228;2023-04-01T22:57:41;99671.56;;;6.87;100.00
21504;BME280;10913;51.992;9.228;2023-04-01T23:02:47;99677.75;;;6.73;100.00
21504;BME280;10913;51.992;9.228;2023-04-01T23:05:17;99693.47;;;6.61;100.00
21504;BME280;10913;51.992;9.228;2023-04-01T23:10:49;99695.22;;;6.28;100.00
21504;BME280;10913;51.992;9.228;2023-04-01T23:13:32;99698.75;;;6.18;100.00
21504;BME280;10913;51.992;9.228;2023-04-01T23:15:59;99698.72;;;6.16;100.00
21504;BME280;10913;51.992;9.228;2023-04-01T23:19:09;99712.72;;;6.23;100.00